createdAt,value
2022-08-28T00:01:48.946Z,18.95
2022-08-28T00:04:18.435Z,18.94
2022-08-28T00:06:48.588Z,18.93
2022-08-28T00:09:17.982Z,18.83
2022-08-28T00:11:47.201Z,18.91
2022-08-28T00:14:19.295Z,18.91
2022-08-28T00:16:50.700Z,18.86
2022-08-28T00:19:22.892Z,18.87
2022-08-28T00:21:53.021Z,18.87
2022-08-28T00:24:22.285Z,18.85
2022-08-28T00:27:08.963Z,18.91
2022-08-28T00:29:38.590Z,18.92
2022-08-28T00:32:09.663Z,18.90
2022-08-28T00:34:38.948Z,18.97
2022-08-28T00:37:08.476Z,18.93
2022-08-28T00:39:37.764Z,18.96
2022-08-28T00:42:07.637Z,18.97
2022-08-28T00:44:38.431Z,18.99
2022-08-28T00:47:10.172Z,18.98
2022-08-28T00:49:48.835Z,18.96
2022-08-28T00:52:18.867Z,18.97
2022-08-28T00:54:58.796Z,18.99
2022-08-28T00:57:33.101Z,19.00
2022-08-28T01:00:02.521Z,19.00
2022-08-28T01:02:33.281Z,18.98
2022-08-28T01:05:02.869Z,18.96
2022-08-28T01:07:32.176Z,18.93
2022-08-28T01:10:01.520Z,18.92
2022-08-28T01:12:34.037Z,18.86
2022-08-28T01:15:09.423Z,18.82
2022-08-28T01:17:44.101Z,18.76
2022-08-28T01:20:19.389Z,18.67
2022-08-28T01:22:59.299Z,18.65
2022-08-28T01:25:34.877Z,18.65
2022-08-28T01:28:14.838Z,18.59
2022-08-28T01:30:48.002Z,18.61
2022-08-28T01:33:17.554Z,18.49
2022-08-28T01:35:48.986Z,18.56
2022-08-28T01:38:20.243Z,18.49
2022-08-28T01:40:57.433Z,18.46
2022-08-28T01:43:28.985Z,18.48
2022-08-28T01:46:02.388Z,18.38
2022-08-28T01:48:37.176Z,18.38
2022-08-28T01:51:07.712Z,18.35
2022-08-28T01:53:37.254Z,18.28
2022-08-28T01:56:16.110Z,18.32
2022-08-28T01:58:48.107Z,18.27
2022-08-28T02:01:20.603Z,18.27
2022-08-28T02:03:53.076Z,18.20
2022-08-28T02:06:22.348Z,18.22
2022-08-28T02:08:55.719Z,18.14
2022-08-28T02:11:26.967Z,18.07
2022-08-28T02:13:56.447Z,18.09
2022-08-28T02:16:26.079Z,18.00
2022-08-28T02:18:55.342Z,17.99
2022-08-28T02:21:25.278Z,17.98
2022-08-28T02:23:55.219Z,17.90
2022-08-28T02:26:26.109Z,18.02
2022-08-28T02:28:55.251Z,18.00
2022-08-28T02:31:24.394Z,18.00
2022-08-28T02:33:53.622Z,17.96
2022-08-28T02:36:25.892Z,17.98
2022-08-28T02:38:57.741Z,17.98
2022-08-28T02:41:28.803Z,17.97
2022-08-28T02:43:57.944Z,17.97
2022-08-28T02:46:27.528Z,17.96
2022-08-28T02:48:56.927Z,17.94
2022-08-28T02:51:26.298Z,17.88
2022-08-28T02:53:55.503Z,17.88
2022-08-28T02:56:24.720Z,17.90
2022-08-28T02:58:56.600Z,17.85
2022-08-28T03:01:26.101Z,17.77
2022-08-28T03:03:55.512Z,17.84
2022-08-28T03:06:24.650Z,17.84
2022-08-28T03:08:53.925Z,17.81
2022-08-28T03:11:23.477Z,17.78
2022-08-28T03:13:54.092Z,17.83
2022-08-28T03:16:25.215Z,17.81
2022-08-28T03:18:54.450Z,17.76
2022-08-28T03:21:23.868Z,17.75
2022-08-28T03:23:52.051Z,17.76
2022-08-28T03:26:24.114Z,17.72
2022-08-28T03:28:57.696Z,17.71
2022-08-28T03:31:33.857Z,17.71
2022-08-28T03:34:03.476Z,17.76
2022-08-28T03:36:33.327Z,17.76
2022-08-28T03:39:06.248Z,17.73
2022-08-28T03:41:37.046Z,17.77
2022-08-28T03:44:07.956Z,17.73
2022-08-28T03:46:37.798Z,17.75
2022-08-28T03:49:07.357Z,17.71
2022-08-28T03:51:36.952Z,17.70
2022-08-28T03:54:06.958Z,17.68
2022-08-28T03:56:36.123Z,17.72
2022-08-28T03:59:08.161Z,17.71
2022-08-28T04:01:38.382Z,17.62
2022-08-28T04:04:07.818Z,17.64
2022-08-28T04:06:37.182Z,17.68
2022-08-28T04:09:08.046Z,17.64
2022-08-28T04:11:42.771Z,17.63
2022-08-28T04:14:13.786Z,17.68
2022-08-28T04:16:43.425Z,17.66
2022-08-28T04:19:12.766Z,17.70
2022-08-28T04:21:41.983Z,17.65
2022-08-28T04:24:13.358Z,17.66
2022-08-28T04:26:42.909Z,17.66
2022-08-28T04:29:13.799Z,17.65
2022-08-28T04:31:43.681Z,17.69
2022-08-28T04:34:13.443Z,17.62
2022-08-28T04:36:42.701Z,17.65
2022-08-28T04:39:11.836Z,17.66
2022-08-28T04:41:41.422Z,17.60
2022-08-28T04:44:12.094Z,17.69
2022-08-28T04:46:44.370Z,17.65
2022-08-28T04:49:17.934Z,17.72
2022-08-28T04:51:50.283Z,17.69
2022-08-28T04:54:19.501Z,17.70
2022-08-28T04:56:48.659Z,17.71
2022-08-28T04:59:19.461Z,17.69
2022-08-28T05:01:48.732Z,17.70
2022-08-28T05:04:19.815Z,17.65
2022-08-28T05:06:49.581Z,17.62
2022-08-28T05:09:21.436Z,17.65
2022-08-28T05:11:53.555Z,17.70
2022-08-28T05:14:24.290Z,17.71
2022-08-28T05:16:55.656Z,17.61
2022-08-28T05:19:26.414Z,17.63
2022-08-28T05:21:56.072Z,17.67
2022-08-28T05:24:25.441Z,17.68
2022-08-28T05:26:54.655Z,17.66
2022-08-28T05:29:25.267Z,17.65
2022-08-28T05:31:55.365Z,17.69
2022-08-28T05:34:25.002Z,17.70
2022-08-28T05:36:54.244Z,17.66
2022-08-28T05:39:23.437Z,17.51
2022-08-28T05:41:55.767Z,17.69
2022-08-28T05:44:26.524Z,17.52
2022-08-28T05:46:57.144Z,17.64
2022-08-28T05:49:28.295Z,17.68
2022-08-28T05:51:57.644Z,17.70
2022-08-28T05:54:29.052Z,17.60
2022-08-28T05:56:58.368Z,17.72
2022-08-28T05:59:28.929Z,17.73
2022-08-28T06:02:02.227Z,17.77
2022-08-28T06:04:33.548Z,17.77
2022-08-28T06:07:02.765Z,17.83
2022-08-28T06:09:32.550Z,17.80
2022-08-28T06:12:03.138Z,17.92
2022-08-28T06:14:34.503Z,17.95
2022-08-28T06:17:04.998Z,17.98
2022-08-28T06:19:41.057Z,17.92
2022-08-28T06:22:14.851Z,17.95
2022-08-28T06:24:44.033Z,18.01
2022-08-28T06:27:13.199Z,18.02
2022-08-28T06:29:44.769Z,18.03
2022-08-28T06:32:14.309Z,18.08
2022-08-28T06:34:43.625Z,18.14
2022-08-28T06:37:13.049Z,18.16
2022-08-28T06:39:42.471Z,18.21
2022-08-28T06:42:11.581Z,18.12
2022-08-28T06:44:42.191Z,18.29
2022-08-28T06:47:11.690Z,18.33
2022-08-28T06:49:41.556Z,18.32
2022-08-28T06:52:10.739Z,18.41
2022-08-28T06:54:39.930Z,18.37
2022-08-28T06:57:11.116Z,18.50
2022-08-28T06:59:40.431Z,18.50
2022-08-28T07:02:11.176Z,18.58
2022-08-28T07:04:40.488Z,18.60
2022-08-28T07:07:10.629Z,18.68
2022-08-28T07:09:59.800Z,18.67
2022-08-28T07:12:28.964Z,18.74
2022-08-28T07:14:58.314Z,18.81
2022-08-28T07:17:28.860Z,18.85
2022-08-28T07:19:58.475Z,18.89
2022-08-28T07:22:27.882Z,18.98
2022-08-28T07:24:58.282Z,19.00
2022-08-28T07:27:27.693Z,19.10
2022-08-28T07:29:56.912Z,19.17
2022-08-28T07:32:26.573Z,19.25
2022-08-28T07:34:57.262Z,19.29
2022-08-28T07:37:27.595Z,19.28
2022-08-28T07:39:56.864Z,19.44
2022-08-28T07:42:43.488Z,19.53
2022-08-28T07:45:13.067Z,19.59
2022-08-28T07:47:42.334Z,19.67
2022-08-28T07:50:13.274Z,19.76
2022-08-28T07:52:43.009Z,19.86
2022-08-28T07:55:12.156Z,19.92
2022-08-28T07:57:43.288Z,19.82
2022-08-28T08:00:14.495Z,19.96
2022-08-28T08:02:43.707Z,19.92
2022-08-28T08:05:14.540Z,19.97
2022-08-28T08:07:43.972Z,19.98
2022-08-28T08:10:19.889Z,20.03
2022-08-28T08:12:50.038Z,20.03
2022-08-28T08:15:21.906Z,20.05
2022-08-28T08:17:51.933Z,20.16
2022-08-28T08:20:22.678Z,20.23
2022-08-28T08:22:52.086Z,20.33
2022-08-28T08:25:21.473Z,20.51
2022-08-28T08:27:55.116Z,20.61
2022-08-28T08:30:24.281Z,20.66
2022-08-28T08:32:53.678Z,20.84
2022-08-28T08:35:25.326Z,20.90
2022-08-28T08:37:54.460Z,20.94
2022-08-28T08:40:23.704Z,20.97
2022-08-28T08:42:57.220Z,20.90
2022-08-28T08:45:29.527Z,21.00
2022-08-28T08:47:58.858Z,21.01
2022-08-28T08:50:32.642Z,21.07
2022-08-28T08:53:24.426Z,21.13
2022-08-28T08:55:55.810Z,21.16
2022-08-28T08:58:32.889Z,21.25
2022-08-28T09:01:10.366Z,21.31
2022-08-28T09:03:56.786Z,21.33
2022-08-28T09:06:41.134Z,21.40
2022-08-28T09:09:19.769Z,21.41
2022-08-28T09:11:56.454Z,21.50
2022-08-28T09:14:38.306Z,21.55
2022-08-28T09:17:09.677Z,21.72
2022-08-28T09:19:38.993Z,21.87
2022-08-28T09:22:09.813Z,22.08
2022-08-28T09:24:42.294Z,22.27
2022-08-28T09:27:25.485Z,22.53
2022-08-28T09:29:58.913Z,23.06
2022-08-28T09:32:35.138Z,23.49
2022-08-28T09:35:14.163Z,23.89
2022-08-28T09:37:45.611Z,24.20
2022-08-28T09:40:26.236Z,24.37
2022-08-28T09:43:30.641Z,24.37
2022-08-28T09:46:03.558Z,24.27
2022-08-28T09:48:37.080Z,24.02
2022-08-28T09:51:08.557Z,24.04
2022-08-28T09:53:54.905Z,23.87
2022-08-28T09:56:29.672Z,23.89
2022-08-28T09:59:03.646Z,23.86
2022-08-28T10:01:49.069Z,23.80
2022-08-28T10:04:44.650Z,23.86
2022-08-28T10:07:24.558Z,23.91
2022-08-28T10:10:11.050Z,23.91
2022-08-28T10:12:50.835Z,23.82
2022-08-28T10:15:27.702Z,23.80
2022-08-28T10:18:34.141Z,23.72
2022-08-28T10:21:14.910Z,23.66
2022-08-28T10:24:05.409Z,23.66
2022-08-28T10:26:45.861Z,23.64
2022-08-28T10:29:32.687Z,23.59
2022-08-28T10:32:24.845Z,23.60
2022-08-28T10:35:05.032Z,23.57
2022-08-28T10:37:52.142Z,23.42
2022-08-28T10:40:29.630Z,23.42
2022-08-28T10:43:06.074Z,23.29
2022-08-28T10:45:36.237Z,23.21
2022-08-28T10:48:12.272Z,23.29
2022-08-28T10:50:47.179Z,23.09
2022-08-28T10:53:21.857Z,23.13
2022-08-28T10:55:57.723Z,23.05
2022-08-28T10:58:30.135Z,22.96
2022-08-28T11:01:03.280Z,22.97
2022-08-28T11:03:41.907Z,22.84
2022-08-28T11:06:22.603Z,22.85
2022-08-28T11:08:56.909Z,22.82
2022-08-28T11:11:45.349Z,22.81
2022-08-28T11:14:29.991Z,22.84
2022-08-28T11:17:03.445Z,22.83
2022-08-28T11:20:01.992Z,22.82
2022-08-28T11:22:38.615Z,22.74
2022-08-28T11:25:19.715Z,22.77
2022-08-28T11:28:19.850Z,22.78
2022-08-28T11:31:16.359Z,22.55
2022-08-28T11:34:01.274Z,22.40
2022-08-28T11:37:03.629Z,22.33
2022-08-28T11:39:33.137Z,22.31
2022-08-28T11:42:37.406Z,22.26
2022-08-28T11:45:08.123Z,22.24
2022-08-28T11:47:56.608Z,22.23
2022-08-28T11:50:32.347Z,22.25
2022-08-28T11:53:39.778Z,22.34
2022-08-28T11:56:37.213Z,22.40
2022-08-28T11:59:37.302Z,22.58
2022-08-28T12:02:50.751Z,22.64
2022-08-28T12:05:54.380Z,22.76
2022-08-28T12:09:10.171Z,22.75
2022-08-28T12:12:02.819Z,22.78
2022-08-28T12:15:09.404Z,22.72
2022-08-28T12:17:53.724Z,22.77
2022-08-28T12:21:02.246Z,22.77
2022-08-28T12:23:40.039Z,22.84
2022-08-28T12:26:23.990Z,22.86
2022-08-28T12:28:58.277Z,22.83
2022-08-28T12:32:18.914Z,22.63
2022-08-28T12:35:19.437Z,22.72
2022-08-28T12:38:03.798Z,22.54
2022-08-28T12:40:50.551Z,22.55
2022-08-28T12:43:34.614Z,22.48
2022-08-28T12:46:19.131Z,22.56
2022-08-28T12:48:52.798Z,22.52
2022-08-28T12:51:24.691Z,22.52
2022-08-28T12:53:58.502Z,22.54
2022-08-28T12:56:32.653Z,22.55
2022-08-28T12:59:27.696Z,22.51
2022-08-28T13:02:04.090Z,22.53
2022-08-28T13:04:37.565Z,22.48
2022-08-28T13:07:12.494Z,22.38
2022-08-28T13:09:51.588Z,22.27
2022-08-28T13:12:37.845Z,22.27
2022-08-28T13:15:14.561Z,22.07
2022-08-28T13:17:55.041Z,22.02
2022-08-28T13:20:30.619Z,21.92
2022-08-28T13:23:01.690Z,21.85
2022-08-28T13:25:36.962Z,21.71
2022-08-28T13:28:17.827Z,21.66
2022-08-28T13:30:59.248Z,21.57
2022-08-28T13:33:28.862Z,21.65
2022-08-28T13:35:58.053Z,21.55
2022-08-28T13:38:27.450Z,21.59
2022-08-28T13:41:03.810Z,21.58
2022-08-28T13:43:47.468Z,21.57
2022-08-28T13:46:18.328Z,21.50
2022-08-28T13:48:47.773Z,21.44
2022-08-28T13:51:20.721Z,21.39
2022-08-28T13:53:50.544Z,21.29
2022-08-28T13:56:23.181Z,21.32
2022-08-28T13:58:57.818Z,21.31
2022-08-28T14:01:48.486Z,21.33
2022-08-28T14:04:17.094Z,21.35
2022-08-28T14:06:46.301Z,21.47
2022-08-28T14:09:17.736Z,21.54
2022-08-28T14:11:49.925Z,21.65
2022-08-28T14:14:20.066Z,21.77
2022-08-28T14:16:52.650Z,21.81
2022-08-28T14:19:22.650Z,21.78
2022-08-28T14:21:51.892Z,21.83
2022-08-28T14:24:21.318Z,21.76
2022-08-28T14:26:55.658Z,21.84
2022-08-28T14:29:24.913Z,21.81
2022-08-28T14:31:54.108Z,21.86
2022-08-28T14:34:24.517Z,21.93
2022-08-28T14:36:56.160Z,22.03
2022-08-28T14:39:27.935Z,22.07
2022-08-28T14:41:59.131Z,22.20
2022-08-28T14:44:28.862Z,22.21
2022-08-28T14:46:58.190Z,22.34
2022-08-28T14:49:28.992Z,22.43
2022-08-28T14:51:58.380Z,22.53
2022-08-28T14:54:27.855Z,22.50
2022-08-28T14:56:58.633Z,22.56
2022-08-28T14:59:30.532Z,22.53
2022-08-28T15:02:02.400Z,22.55
2022-08-28T15:04:37.816Z,22.63
2022-08-28T15:07:13.153Z,22.67
2022-08-28T15:09:44.111Z,22.72
2022-08-28T15:12:14.873Z,22.71
2022-08-28T15:14:54.947Z,22.68
2022-08-28T15:17:33.443Z,22.67
2022-08-28T15:20:05.650Z,22.60
2022-08-28T15:22:34.981Z,22.64
2022-08-28T15:25:06.913Z,22.46
2022-08-28T15:27:37.984Z,22.42
2022-08-28T15:30:08.635Z,22.28
2022-08-28T15:32:37.973Z,22.39
2022-08-28T15:35:08.597Z,22.36
2022-08-28T15:37:37.852Z,22.31
2022-08-28T15:40:26.425Z,22.32
2022-08-28T15:42:57.780Z,22.29
2022-08-28T15:45:27.530Z,22.30
2022-08-28T15:47:58.553Z,22.25
2022-08-28T15:50:27.805Z,22.28
2022-08-28T15:52:57.085Z,22.32
2022-08-28T15:55:28.597Z,22.22
2022-08-28T15:57:59.279Z,22.32
2022-08-28T16:00:29.088Z,22.40
2022-08-28T16:03:01.000Z,22.41
2022-08-28T16:05:40.660Z,22.35
2022-08-28T16:08:11.641Z,22.27
2022-08-28T16:10:41.187Z,22.28
2022-08-28T16:13:11.890Z,22.21
2022-08-28T16:15:41.310Z,22.22
2022-08-28T16:18:10.723Z,22.08
2022-08-28T16:20:41.097Z,22.10
2022-08-28T16:23:11.998Z,22.11
2022-08-28T16:25:42.010Z,22.03
2022-08-28T16:28:12.787Z,22.00
2022-08-28T16:30:43.875Z,22.09
2022-08-28T16:33:14.049Z,21.96
2022-08-28T16:35:49.511Z,22.05
2022-08-28T16:38:25.175Z,21.98
2022-08-28T16:40:54.442Z,21.97
2022-08-28T16:43:25.695Z,21.95
2022-08-28T16:45:54.914Z,21.87
2022-08-28T16:48:24.076Z,21.82
2022-08-28T16:50:53.350Z,21.75
2022-08-28T16:53:26.997Z,21.73
2022-08-28T16:55:56.611Z,21.73
2022-08-28T16:58:27.940Z,21.73
2022-08-28T17:00:57.387Z,21.68
2022-08-28T17:03:26.895Z,21.69
2022-08-28T17:05:58.210Z,21.63
2022-08-28T17:08:27.710Z,21.61
2022-08-28T17:10:58.712Z,21.57
2022-08-28T17:13:29.384Z,21.52
2022-08-28T17:15:58.752Z,21.49
2022-08-28T17:18:27.998Z,21.35
2022-08-28T17:21:14.838Z,21.38
2022-08-28T17:23:44.275Z,21.41
2022-08-28T17:26:14.570Z,21.47
2022-08-28T17:28:46.498Z,21.39
2022-08-28T17:31:16.005Z,21.40
2022-08-28T17:33:47.143Z,21.29
2022-08-28T17:36:32.386Z,21.22
2022-08-28T17:39:03.189Z,21.23
2022-08-28T17:41:33.614Z,21.15
2022-08-28T17:44:05.676Z,21.08
2022-08-28T17:46:37.962Z,21.07
2022-08-28T17:49:09.225Z,21.05
2022-08-28T17:51:42.369Z,20.94
2022-08-28T17:54:13.997Z,20.96
2022-08-28T17:56:43.900Z,20.92
2022-08-28T17:59:15.366Z,20.84
2022-08-28T18:01:46.585Z,20.85
2022-08-28T18:04:23.269Z,20.85
2022-08-28T18:06:54.955Z,20.83
2022-08-28T18:09:25.352Z,20.79
2022-08-28T18:11:55.085Z,20.68
2022-08-28T18:14:26.493Z,20.69
2022-08-28T18:16:56.691Z,20.66
2022-08-28T18:19:26.198Z,20.55
2022-08-28T18:21:55.902Z,20.52
2022-08-28T18:24:26.029Z,20.49
2022-08-28T18:26:57.370Z,20.42
2022-08-28T18:29:28.114Z,20.21
2022-08-28T18:31:57.548Z,20.31
2022-08-28T18:34:26.677Z,20.32
2022-08-28T18:36:55.848Z,20.31
2022-08-28T18:39:29.665Z,20.21
2022-08-28T18:41:59.893Z,20.22
2022-08-28T18:44:32.025Z,20.17
2022-08-28T18:47:01.411Z,20.17
2022-08-28T18:49:30.683Z,20.08
2022-08-28T18:51:59.907Z,20.12
2022-08-28T18:54:29.667Z,20.08
2022-08-28T18:57:04.194Z,20.11
2022-08-28T18:59:35.427Z,20.09
2022-08-28T19:02:04.752Z,20.06
2022-08-28T19:04:33.883Z,20.03
2022-08-28T19:07:03.203Z,19.99
2022-08-28T19:09:34.884Z,19.94
2022-08-28T19:12:05.921Z,19.96
2022-08-28T19:14:37.295Z,19.94
2022-08-28T19:17:06.725Z,19.88
2022-08-28T19:19:36.080Z,19.88
2022-08-28T19:22:06.660Z,19.88
2022-08-28T19:24:35.881Z,19.83
2022-08-28T19:27:05.273Z,19.78
2022-08-28T19:29:35.925Z,19.78
2022-08-28T19:32:06.345Z,19.70
2022-08-28T19:34:36.148Z,19.69
2022-08-28T19:37:06.433Z,19.64
2022-08-28T19:39:35.761Z,19.68
2022-08-28T19:42:05.192Z,19.67
2022-08-28T19:44:39.429Z,19.64
2022-08-28T19:47:09.087Z,19.51
2022-08-28T19:49:41.751Z,19.60
2022-08-28T19:52:11.234Z,19.62
2022-08-28T19:54:42.447Z,19.54
2022-08-28T19:57:11.813Z,19.48
2022-08-28T19:59:42.750Z,19.49
2022-08-28T20:02:14.538Z,19.50
2022-08-28T20:04:43.915Z,19.51
2022-08-28T20:07:13.312Z,19.48
2022-08-28T20:09:42.691Z,19.45
2022-08-28T20:12:11.999Z,19.46
2022-08-28T20:14:42.749Z,19.45
2022-08-28T20:17:15.313Z,19.43
2022-08-28T20:19:45.578Z,19.43
2022-08-28T20:22:15.370Z,19.39
2022-08-28T20:24:45.308Z,19.30
2022-08-28T20:27:14.644Z,19.39
2022-08-28T20:29:45.291Z,19.31
2022-08-28T20:32:14.550Z,19.42
2022-08-28T20:34:44.605Z,19.39
2022-08-28T20:37:17.639Z,19.34
2022-08-28T20:39:47.396Z,19.37
2022-08-28T20:42:16.693Z,19.35
2022-08-28T20:44:47.654Z,19.34
2022-08-28T20:47:17.079Z,19.33
2022-08-28T20:49:47.710Z,19.33
2022-08-28T20:52:17.039Z,19.31
2022-08-28T20:54:46.315Z,19.26
2022-08-28T20:57:21.183Z,19.30
2022-08-28T20:59:54.094Z,19.28
2022-08-28T21:02:26.289Z,19.25
2022-08-28T21:04:56.737Z,19.19
2022-08-28T21:07:27.151Z,19.22
2022-08-28T21:10:05.456Z,19.19
2022-08-28T21:12:36.380Z,19.05
2022-08-28T21:15:09.705Z,19.15
2022-08-28T21:17:39.050Z,19.07
2022-08-28T21:20:12.803Z,19.03
2022-08-28T21:22:42.786Z,19.05
2022-08-28T21:25:13.548Z,19.02
2022-08-28T21:27:44.220Z,19.02
2022-08-28T21:30:19.194Z,19.05
2022-08-28T21:32:50.036Z,19.06
2022-08-28T21:35:21.002Z,19.03
2022-08-28T21:37:51.206Z,19.13
2022-08-28T21:40:20.733Z,19.05
2022-08-28T21:42:50.055Z,19.18
2022-08-28T21:45:22.531Z,19.08
2022-08-28T21:47:51.850Z,19.14
2022-08-28T21:50:21.204Z,19.08
2022-08-28T21:52:50.338Z,19.19
2022-08-28T21:55:19.508Z,19.17
2022-08-28T21:57:48.998Z,19.09
2022-08-28T22:00:23.280Z,19.12
2022-08-28T22:02:52.694Z,19.08
2022-08-28T22:05:22.127Z,18.96
2022-08-28T22:07:51.369Z,19.04
2022-08-28T22:10:20.570Z,19.00
2022-08-28T22:12:49.829Z,18.99
2022-08-28T22:15:20.533Z,19.00
2022-08-28T22:17:49.737Z,19.01
2022-08-28T22:20:19.298Z,18.92
2022-08-28T22:23:06.141Z,18.99
2022-08-28T22:25:40.904Z,18.95
2022-08-28T22:28:11.821Z,18.94
2022-08-28T22:30:42.516Z,18.98
2022-08-28T22:33:12.201Z,18.98
2022-08-28T22:35:41.395Z,18.96
2022-08-28T22:38:11.233Z,19.02
2022-08-28T22:40:40.559Z,19.03
2022-08-28T22:43:09.923Z,18.95
2022-08-28T22:45:39.616Z,18.99
2022-08-28T22:48:11.647Z,19.01
2022-08-28T22:50:42.353Z,18.94
2022-08-28T22:53:12.819Z,18.96
2022-08-28T22:55:43.892Z,18.96
2022-08-28T22:58:16.934Z,19.00
2022-08-28T23:00:46.407Z,18.94
2022-08-28T23:03:17.254Z,18.96
2022-08-28T23:05:46.822Z,18.96
2022-08-28T23:08:16.109Z,19.03
2022-08-28T23:10:58.413Z,19.03
2022-08-28T23:13:28.877Z,19.02
2022-08-28T23:15:58.585Z,19.00
2022-08-28T23:18:41.602Z,18.98
2022-08-28T23:21:20.582Z,19.04
2022-08-28T23:23:49.854Z,19.02
2022-08-28T23:26:20.326Z,19.01
2022-08-28T23:28:49.905Z,19.02
2022-08-28T23:31:19.313Z,19.03
2022-08-28T23:33:50.249Z,18.98
2022-08-28T23:36:19.591Z,18.99
2022-08-28T23:38:48.811Z,18.99
2022-08-28T23:41:18.511Z,18.96
2022-08-28T23:43:53.416Z,18.95
2022-08-28T23:46:26.232Z,18.98
2022-08-28T23:48:57.070Z,18.94
2022-08-28T23:51:26.608Z,18.90
2022-08-28T23:53:58.913Z,18.88
2022-08-28T23:56:28.391Z,18.87
2022-08-28T23:58:57.627Z,18.77
